sensor_id;sensor_type;location;lat;lon;timestamp;P1;P2;P0
77481;PMS5003;66582;43.004;-75.010;2023-03-30T00:00:10;8;8;
77481;PMS5003;66582;43.004;-75.010;2023-03-30T00:02:34;8;8;
77481;PMS5003;66582;43.004;-75.010;2023-03-30T00:05:00;8;7;
77481;PMS5003;66582;43.004;-75.010;2023-03-30T00:07:24;9;8;
77481;PMS5003;66582;43.004;-75.010;2023-03-30T00:09:50;10;10;
77481;PMS5003;66582;43.004;-75.010;2023-03-30T00:12:14;10;9;
77481;PMS5003;66582;43.004;-75.010;2023-03-30T00:14:40;9;9;
77481;PMS5003;66582;43.004;-75.010;2023-03-30T00:17:05;11;10;
77481;PMS5003;66582;43.004;-75.010;2023-03-30T00:19:30;5;5;
77481;PMS5003;66582;43.004;-75.010;2023-03-30T00:21:56;6;6;
77481;PMS5003;66582;43.004;-75.010;2023-03-30T00:24:21;3;3;
77481;PMS5003;66582;43.004;-75.010;2023-03-30T00:26:46;3;3;
77481;PMS5003;66582;43.004;-75.010;2023-03-30T00:29:12;3;3;
77481;PMS5003;66582;43.004;-75.010;2023-03-30T00:31:36;3;3;
77481;PMS5003;66582;43.004;-75.010;2023-03-30T00:34:01;2;2;
77481;PMS5003;66582;43.004;-75.010;2023-03-30T00:36:27;1;1;
77481;PMS5003;66582;43.004;-75.010;2023-03-30T00:38:52;1;1;
77481;PMS5003;66582;43.004;-75.010;2023-03-30T00:41:17;1;1;
77481;PMS5003;66582;43.004;-75.010;2023-03-30T00:46:08;1;1;
77481;PMS5003;66582;43.004;-75.010;2023-03-30T00:48:33;1;1;
77481;PMS5003;66582;43.004;-75.010;2023-03-30T00:50:58;2;1;
77481;PMS5003;66582;43.004;-75.010;2023-03-30T00:53:24;1;1;
77481;PMS5003;66582;43.004;-75.010;2023-03-30T00:55:49;2;2;
77481;PMS5003;66582;43.004;-75.010;2023-03-30T00:58:14;0;0;
77481;PMS5003;66582;43.004;-75.010;2023-03-30T01:00:38;0;0;
77481;PMS5003;66582;43.004;-75.010;2023-03-30T01:03:05;2;1;
77481;PMS5003;66582;43.004;-75.010;2023-03-30T01:05:29;2;1;
77481;PMS5003;66582;43.004;-75.010;2023-03-30T01:07:54;1;1;
77481;PMS5003;66582;43.004;-75.010;2023-03-30T01:10:20;1;1;
77481;PMS5003;66582;43.004;-75.010;2023-03-30T01:12:44;1;1;
77481;PMS5003;66582;43.004;-75.010;2023-03-30T01:15:10;1;1;
77481;PMS5003;66582;43.004;-75.010;2023-03-30T01:17:38;1;1;
77481;PMS5003;66582;43.004;-75.010;2023-03-30T01:20:11;2;2;
77481;PMS5003;66582;43.004;-75.010;2023-03-30T01:22:31;3;3;
77481;PMS5003;66582;43.004;-75.010;2023-03-30T01:27:19;6;4;
77481;PMS5003;66582;43.004;-75.010;2023-03-30T01:29:43;3;2;
77481;PMS5003;66582;43.004;-75.010;2023-03-30T01:32:11;4;4;
77481;PMS5003;66582;43.004;-75.010;2023-03-30T01:34:35;4;4;
77481;PMS5003;66582;43.004;-75.010;2023-03-30T01:37:05;3;3;
77481;PMS5003;66582;43.004;-75.010;2023-03-30T01:39:25;7;6;
77481;PMS5003;66582;43.004;-75.010;2023-03-30T01:41:49;4;4;
77481;PMS5003;66582;43.004;-75.010;2023-03-30T01:44:14;4;3;
77481;PMS5003;66582;43.004;-75.010;2023-03-30T01:46:38;3;3;
77481;PMS5003;66582;43.004;-75.010;2023-03-30T01:49:05;9;6;
77481;PMS5003;66582;43.004;-75.010;2023-03-30T01:51:29;6;6;
77481;PMS5003;66582;43.004;-75.010;2023-03-30T01:53:54;6;4;
77481;PMS5003;66582;43.004;-75.010;2023-03-30T01:56:21;8;4;
77481;PMS5003;66582;43.004;-75.010;2023-03-30T01:58:45;2;2;
77481;PMS5003;66582;43.004;-75.010;2023-03-30T02:01:09;4;4;
77481;PMS5003;66582;43.004;-75.010;2023-03-30T02:03:35;6;4;
77481;PMS5003;66582;43.004;-75.010;2023-03-30T02:06:01;4;3;
77481;PMS5003;66582;43.004;-75.010;2023-03-30T02:08:26;3;2;
77481;PMS5003;66582;43.004;-75.010;2023-03-30T02:10:50;3;3;
77481;PMS5003;66582;43.004;-75.010;2023-03-30T02:13:15;3;3;
77481;PMS5003;66582;43.004;-75.010;2023-03-30T02:15:41;2;2;
77481;PMS5003;66582;43.004;-75.010;2023-03-30T02:18:05;3;3;
77481;PMS5003;66582;43.004;-75.010;2023-03-30T02:20:31;3;3;
77481;PMS5003;66582;43.004;-75.010;2023-03-30T02:22:56;3;3;
77481;PMS5003;66582;43.004;-75.010;2023-03-30T02:25:21;4;4;
77481;PMS5003;66582;43.004;-75.010;2023-03-30T02:27:47;4;4;
77481;PMS5003;66582;43.004;-75.010;2023-03-30T02:30:12;7;4;
77481;PMS5003;66582;43.004;-75.010;2023-03-30T02:32:39;4;4;
77481;PMS5003;66582;43.004;-75.010;2023-03-30T02:35:09;2;2;
77481;PMS5003;66582;43.004;-75.010;2023-03-30T02:37:32;2;2;
77481;PMS5003;66582;43.004;-75.010;2023-03-30T02:39:56;2;2;
77481;PMS5003;66582;43.004;-75.010;2023-03-30T02:42:24;1;1;
77481;PMS5003;66582;43.004;-75.010;2023-03-30T02:44:43;3;3;
77481;PMS5003;66582;43.004;-75.010;2023-03-30T02:47:09;1;1;
77481;PMS5003;66582;43.004;-75.010;2023-03-30T02:49:36;3;3;
77481;PMS5003;66582;43.004;-75.010;2023-03-30T02:52:00;3;2;
77481;PMS5003;66582;43.004;-75.010;2023-03-30T02:54:28;3;3;
77481;PMS5003;66582;43.004;-75.010;2023-03-30T02:56:51;1;1;
77481;PMS5003;66582;43.004;-75.010;2023-03-30T02:59:16;2;1;
77481;PMS5003;66582;43.004;-75.010;2023-03-30T03:01:41;1;1;
77481;PMS5003;66582;43.004;-75.010;2023-03-30T03:04:04;1;1;
77481;PMS5003;66582;43.004;-75.010;2023-03-30T03:06:29;1;1;
77481;PMS5003;66582;43.004;-75.010;2023-03-30T03:08:55;1;1;
77481;PMS5003;66582;43.004;-75.010;2023-03-30T03:11:20;2;2;
77481;PMS5003;66582;43.004;-75.010;2023-03-30T03:13:45;1;1;
77481;PMS5003;66582;43.004;-75.010;2023-03-30T03:16:10;1;0;
77481;PMS5003;66582;43.004;-75.010;2023-03-30T03:18:36;1;1;
77481;PMS5003;66582;43.004;-75.010;2023-03-30T03:21:01;0;0;
77481;PMS5003;66582;43.004;-75.010;2023-03-30T03:23:26;2;2;
77481;PMS5003;66582;43.004;-75.010;2023-03-30T03:25:51;1;0;
77481;PMS5003;66582;43.004;-75.010;2023-03-30T03:28:16;0;0;
77481;PMS5003;66582;43.004;-75.010;2023-03-30T03:30:41;0;0;
77481;PMS5003;66582;43.004;-75.010;2023-03-30T03:33:06;1;1;
77481;PMS5003;66582;43.004;-75.010;2023-03-30T03:35:32;1;1;
77481;PMS5003;66582;43.004;-75.010;2023-03-30T03:37:57;1;1;
77481;PMS5003;66582;43.004;-75.010;2023-03-30T03:40:22;0;0;
77481;PMS5003;66582;43.004;-75.010;2023-03-30T03:42:47;1;1;
77481;PMS5003;66582;43.004;-75.010;2023-03-30T03:45:13;0;0;
77481;PMS5003;66582;43.004;-75.010;2023-03-30T03:47:39;1;0;
77481;PMS5003;66582;43.004;-75.010;2023-03-30T03:50:03;0;0;
77481;PMS5003;66582;43.004;-75.010;2023-03-30T03:52:28;1;1;
77481;PMS5003;66582;43.004;-75.010;2023-03-30T03:54:53;0;0;
77481;PMS5003;66582;43.004;-75.010;2023-03-30T03:57:18;1;1;
77481;PMS5003;66582;43.004;-75.010;2023-03-30T03:59:44;1;1;
77481;PMS5003;66582;43.004;-75.010;2023-03-30T04:02:09;3;1;
77481;PMS5003;66582;43.004;-75.010;2023-03-30T04:04:34;0;0;
77481;PMS5003;66582;43.004;-75.010;2023-03-30T04:06:59;1;1;
77481;PMS5003;66582;43.004;-75.010;2023-03-30T04:09:24;0;0;
77481;PMS5003;66582;43.004;-75.010;2023-03-30T04:11:49;1;1;
77481;PMS5003;66582;43.004;-75.010;2023-03-30T04:14:15;0;0;
77481;PMS5003;66582;43.004;-75.010;2023-03-30T04:16:40;1;1;
77481;PMS5003;66582;43.004;-75.010;2023-03-30T04:19:05;1;1;
77481;PMS5003;66582;43.004;-75.010;2023-03-30T04:21:30;1;1;
77481;PMS5003;66582;43.004;-75.010;2023-03-30T04:23:56;1;1;
77481;PMS5003;66582;43.004;-75.010;2023-03-30T04:26:21;0;0;
77481;PMS5003;66582;43.004;-75.010;2023-03-30T04:28:46;1;1;
77481;PMS5003;66582;43.004;-75.010;2023-03-30T04:31:11;0;0;
77481;PMS5003;66582;43.004;-75.010;2023-03-30T04:33:36;0;0;
77481;PMS5003;66582;43.004;-75.010;2023-03-30T04:36:01;0;0;
77481;PMS5003;66582;43.004;-75.010;2023-03-30T04:38:27;0;0;
77481;PMS5003;66582;43.004;-75.010;2023-03-30T04:40:53;0;0;
77481;PMS5003;66582;43.004;-75.010;2023-03-30T04:43:18;0;0;
77481;PMS5003;66582;43.004;-75.010;2023-03-30T04:45:42;0;0;
77481;PMS5003;66582;43.004;-75.010;2023-03-30T04:48:07;0;0;
77481;PMS5003;66582;43.004;-75.010;2023-03-30T04:50:33;0;0;
77481;PMS5003;66582;43.004;-75.010;2023-03-30T04:52:58;1;1;
77481;PMS5003;66582;43.004;-75.010;2023-03-30T04:55:23;0;0;
77481;PMS5003;66582;43.004;-75.010;2023-03-30T04:57:49;0;0;
77481;PMS5003;66582;43.004;-75.010;2023-03-30T05:00:14;1;1;
77481;PMS5003;66582;43.004;-75.010;2023-03-30T05:02:39;1;0;
77481;PMS5003;66582;43.004;-75.010;2023-03-30T05:05:04;1;0;
77481;PMS5003;66582;43.004;-75.010;2023-03-30T05:07:29;0;0;
77481;PMS5003;66582;43.004;-75.010;2023-03-30T05:09:54;0;0;
77481;PMS5003;66582;43.004;-75.010;2023-03-30T05:12:19;0;0;
77481;PMS5003;66582;43.004;-75.010;2023-03-30T05:14:45;1;0;
77481;PMS5003;66582;43.004;-75.010;2023-03-30T05:17:10;1;0;
77481;PMS5003;66582;43.004;-75.010;2023-03-30T05:19:35;2;1;
77481;PMS5003;66582;43.004;-75.010;2023-03-30T05:22:00;0;0;
77481;PMS5003;66582;43.004;-75.010;2023-03-30T05:24:26;0;0;
77481;PMS5003;66582;43.004;-75.010;2023-03-30T05:26:51;1;1;
77481;PMS5003;66582;43.004;-75.010;2023-03-30T05:29:16;0;0;
77481;PMS5003;66582;43.004;-75.010;2023-03-30T05:31:41;2;1;
77481;PMS5003;66582;43.004;-75.010;2023-03-30T05:34:06;0;0;
77481;PMS5003;66582;43.004;-75.010;2023-03-30T05:36:32;1;0;
77481;PMS5003;66582;43.004;-75.010;2023-03-30T05:38:57;0;0;
77481;PMS5003;66582;43.004;-75.010;2023-03-30T05:41:22;0;0;
77481;PMS5003;66582;43.004;-75.010;2023-03-30T05:43:47;1;1;
77481;PMS5003;66582;43.004;-75.010;2023-03-30T05:46:12;0;0;
77481;PMS5003;66582;43.004;-75.010;2023-03-30T05:48:37;0;0;
77481;PMS5003;66582;43.004;-75.010;2023-03-30T05:51:03;0;0;
77481;PMS5003;66582;43.004;-75.010;2023-03-30T05:53:28;1;0;
77481;PMS5003;66582;43.004;-75.010;2023-03-30T05:55:53;1;1;
77481;PMS5003;66582;43.004;-75.010;2023-03-30T05:58:18;1;1;
77481;PMS5003;66582;43.004;-75.010;2023-03-30T06:00:44;0;0;
77481;PMS5003;66582;43.004;-75.010;2023-03-30T06:03:09;0;0;
77481;PMS5003;66582;43.004;-75.010;2023-03-30T06:05:34;0;0;
77481;PMS5003;66582;43.004;-75.010;2023-03-30T06:07:59;2;1;
77481;PMS5003;66582;43.004;-75.010;2023-03-30T06:10:24;0;0;
77481;PMS5003;66582;43.004;-75.010;2023-03-30T06:12:49;0;0;
77481;PMS5003;66582;43.004;-75.010;2023-03-30T06:15:15;0;0;
77481;PMS5003;66582;43.004;-75.010;2023-03-30T06:17:40;0;0;
77481;PMS5003;66582;43.004;-75.010;2023-03-30T06:20:06;0;0;
77481;PMS5003;66582;43.004;-75.010;2023-03-30T06:22:30;1;1;
77481;PMS5003;66582;43.004;-75.010;2023-03-30T06:24:55;0;0;
77481;PMS5003;66582;43.004;-75.010;2023-03-30T06:27:21;0;0;
77481;PMS5003;66582;43.004;-75.010;2023-03-30T06:29:46;0;0;
77481;PMS5003;66582;43.004;-75.010;2023-03-30T06:32:11;1;1;
77481;PMS5003;66582;43.004;-75.010;2023-03-30T06:34:37;1;1;
77481;PMS5003;66582;43.004;-75.010;2023-03-30T06:37:01;0;0;
77481;PMS5003;66582;43.004;-75.010;2023-03-30T06:39:27;1;1;
77481;PMS5003;66582;43.004;-75.010;2023-03-30T06:41:52;1;1;
77481;PMS5003;66582;43.004;-75.010;2023-03-30T06:44:17;0;0;
77481;PMS5003;66582;43.004;-75.010;2023-03-30T06:46:42;2;1;
77481;PMS5003;66582;43.004;-75.010;2023-03-30T06:49:09;1;1;
77481;PMS5003;66582;43.004;-75.010;2023-03-30T06:51:33;1;1;
77481;PMS5003;66582;43.004;-75.010;2023-03-30T06:53:58;0;0;
77481;PMS5003;66582;43.004;-75.010;2023-03-30T06:56:23;0;0;
77481;PMS5003;66582;43.004;-75.010;2023-03-30T06:58:48;1;1;
77481;PMS5003;66582;43.004;-75.010;2023-03-30T07:01:14;0;0;
77481;PMS5003;66582;43.004;-75.010;2023-03-30T07:03:39;1;1;
77481;PMS5003;66582;43.004;-75.010;2023-03-30T07:06:04;1;1;
77481;PMS5003;66582;43.004;-75.010;2023-03-30T07:08:29;1;1;
77481;PMS5003;66582;43.004;-75.010;2023-03-30T07:10:55;0;0;
77481;PMS5003;66582;43.004;-75.010;2023-03-30T07:13:20;1;1;
77481;PMS5003;66582;43.004;-75.010;2023-03-30T07:15:46;1;1;
77481;PMS5003;66582;43.004;-75.010;2023-03-30T07:18:11;1;1;
77481;PMS5003;66582;43.004;-75.010;2023-03-30T07:20:35;2;2;
77481;PMS5003;66582;43.004;-75.010;2023-03-30T07:23:00;1;1;
77481;PMS5003;66582;43.004;-75.010;2023-03-30T07:25:26;2;1;
77481;PMS5003;66582;43.004;-75.010;2023-03-30T07:27:51;1;1;
77481;PMS5003;66582;43.004;-75.010;2023-03-30T07:30:16;1;1;
77481;PMS5003;66582;43.004;-75.010;2023-03-30T07:32:41;0;0;
77481;PMS5003;66582;43.004;-75.010;2023-03-30T07:35:07;1;1;
77481;PMS5003;66582;43.004;-75.010;2023-03-30T07:37:32;1;1;
77481;PMS5003;66582;43.004;-75.010;2023-03-30T07:39:57;1;1;
77481;PMS5003;66582;43.004;-75.010;2023-03-30T07:42:22;2;2;
77481;PMS5003;66582;43.004;-75.010;2023-03-30T07:44:47;2;2;
77481;PMS5003;66582;43.004;-75.010;2023-03-30T07:47:12;0;0;
77481;PMS5003;66582;43.004;-75.010;2023-03-30T07:49:38;0;0;
77481;PMS5003;66582;43.004;-75.010;2023-03-30T07:52:03;1;1;
77481;PMS5003;66582;43.004;-75.010;2023-03-30T07:54:28;1;1;
77481;PMS5003;66582;43.004;-75.010;2023-03-30T07:56:53;1;1;
77481;PMS5003;66582;43.004;-75.010;2023-03-30T07:59:18;2;1;
77481;PMS5003;66582;43.004;-75.010;2023-03-30T08:01:44;1;1;
77481;PMS5003;66582;43.004;-75.010;2023-03-30T08:04:09;2;1;
77481;PMS5003;66582;43.004;-75.010;2023-03-30T08:06:34;1;1;
77481;PMS5003;66582;43.004;-75.010;2023-03-30T08:08:59;2;2;
77481;PMS5003;66582;43.004;-75.010;2023-03-30T08:11:24;2;2;
77481;PMS5003;66582;43.004;-75.010;2023-03-30T08:13:50;1;0;
77481;PMS5003;66582;43.004;-75.010;2023-03-30T08:16:15;1;1;
77481;PMS5003;66582;43.004;-75.010;2023-03-30T08:18:40;1;0;
77481;PMS5003;66582;43.004;-75.010;2023-03-30T08:21:05;1;1;
77481;PMS5003;66582;43.004;-75.010;2023-03-30T08:23:31;2;1;
77481;PMS5003;66582;43.004;-75.010;2023-03-30T08:25:56;1;1;
77481;PMS5003;66582;43.004;-75.010;2023-03-30T08:28:21;1;1;
77481;PMS5003;66582;43.004;-75.010;2023-03-30T08:30:46;1;1;
77481;PMS5003;66582;43.004;-75.010;2023-03-30T08:33:12;1;1;
77481;PMS5003;66582;43.004;-75.010;2023-03-30T08:35:37;1;1;
77481;PMS5003;66582;43.004;-75.010;2023-03-30T08:38:02;1;1;
77481;PMS5003;66582;43.004;-75.010;2023-03-30T08:40:27;1;1;
77481;PMS5003;66582;43.004;-75.010;2023-03-30T08:42:57;1;1;
77481;PMS5003;66582;43.004;-75.010;2023-03-30T08:45:18;2;2;
77481;PMS5003;66582;43.004;-75.010;2023-03-30T08:47:44;2;1;
77481;PMS5003;66582;43.004;-75.010;2023-03-30T08:50:10;1;1;
77481;PMS5003;66582;43.004;-75.010;2023-03-30T08:52:33;1;0;
77481;PMS5003;66582;43.004;-75.010;2023-03-30T08:54:59;2;1;
77481;PMS5003;66582;43.004;-75.010;2023-03-30T08:57:29;1;1;
77481;PMS5003;66582;43.004;-75.010;2023-03-30T08:59:50;1;1;
77481;PMS5003;66582;43.004;-75.010;2023-03-30T09:02:15;1;1;
77481;PMS5003;66582;43.004;-75.010;2023-03-30T09:04:42;1;1;
77481;PMS5003;66582;43.004;-75.010;2023-03-30T09:07:05;1;1;
77481;PMS5003;66582;43.004;-75.010;2023-03-30T09:09:30;3;3;
77481;PMS5003;66582;43.004;-75.010;2023-03-30T09:11:55;2;1;
77481;PMS5003;66582;43.004;-75.010;2023-03-30T09:14:24;2;1;
77481;PMS5003;66582;43.004;-75.010;2023-03-30T09:16:47;2;1;
77481;PMS5003;66582;43.004;-75.010;2023-03-30T09:19:11;2;1;
77481;PMS5003;66582;43.004;-75.010;2023-03-30T09:21:36;2;2;
77481;PMS5003;66582;43.004;-75.010;2023-03-30T09:24:01;1;1;
77481;PMS5003;66582;43.004;-75.010;2023-03-30T09:26:28;2;2;
77481;PMS5003;66582;43.004;-75.010;2023-03-30T09:28:53;1;1;
77481;PMS5003;66582;43.004;-75.010;2023-03-30T09:31:17;2;2;
77481;PMS5003;66582;43.004;-75.010;2023-03-30T09:33:43;2;2;
77481;PMS5003;66582;43.004;-75.010;2023-03-30T09:36:09;5;2;
77481;PMS5003;66582;43.004;-75.010;2023-03-30T09:38:32;1;1;
77481;PMS5003;66582;43.004;-75.010;2023-03-30T09:41:01;1;1;
77481;PMS5003;66582;43.004;-75.010;2023-03-30T09:43:26;1;1;
77481;PMS5003;66582;43.004;-75.010;2023-03-30T09:45:48;2;2;
77481;PMS5003;66582;43.004;-75.010;2023-03-30T09:48:14;1;1;
77481;PMS5003;66582;43.004;-75.010;2023-03-30T09:50:39;2;2;
77481;PMS5003;66582;43.004;-75.010;2023-03-30T09:53:05;3;3;
77481;PMS5003;66582;43.004;-75.010;2023-03-30T09:55:30;1;1;
77481;PMS5003;66582;43.004;-75.010;2023-03-30T09:58:08;1;1;
77481;PMS5003;66582;43.004;-75.010;2023-03-30T10:00:23;1;1;
77481;PMS5003;66582;43.004;-75.010;2023-03-30T10:02:48;1;1;
77481;PMS5003;66582;43.004;-75.010;2023-03-30T10:05:13;2;2;
77481;PMS5003;66582;43.004;-75.010;2023-03-30T10:07:36;1;1;
77481;PMS5003;66582;43.004;-75.010;2023-03-30T10:10:01;2;2;
77481;PMS5003;66582;43.004;-75.010;2023-03-30T10:12:26;1;1;
77481;PMS5003;66582;43.004;-75.010;2023-03-30T10:14:52;0;0;
77481;PMS5003;66582;43.004;-75.010;2023-03-30T10:17:17;2;2;
77481;PMS5003;66582;43.004;-75.010;2023-03-30T10:19:41;1;1;
77481;PMS5003;66582;43.004;-75.010;2023-03-30T10:24:33;1;1;
77481;PMS5003;66582;43.004;-75.010;2023-03-30T10:27:01;2;2;
77481;PMS5003;66582;43.004;-75.010;2023-03-30T10:29:25;2;2;
77481;PMS5003;66582;43.004;-75.010;2023-03-30T10:31:49;2;2;
77481;PMS5003;66582;43.004;-75.010;2023-03-30T10:34:14;2;1;
77481;PMS5003;66582;43.004;-75.010;2023-03-30T10:36:39;2;2;
77481;PMS5003;66582;43.004;-75.010;2023-03-30T10:39:05;1;1;
77481;PMS5003;66582;43.004;-75.010;2023-03-30T10:41:30;2;2;
77481;PMS5003;66582;43.004;-75.010;2023-03-30T10:43:54;2;1;
77481;PMS5003;66582;43.004;-75.010;2023-03-30T10:46:20;3;2;
77481;PMS5003;66582;43.004;-75.010;2023-03-30T10:48:50;1;1;
77481;PMS5003;66582;43.004;-75.010;2023-03-30T10:51:12;2;1;
77481;PMS5003;66582;43.004;-75.010;2023-03-30T10:53:38;1;1;
77481;PMS5003;66582;43.004;-75.010;2023-03-30T10:56:02;2;2;
77481;PMS5003;66582;43.004;-75.010;2023-03-30T10:58:29;1;1;
77481;PMS5003;66582;43.004;-75.010;2023-03-30T11:00:54;1;1;
77481;PMS5003;66582;43.004;-75.010;2023-03-30T11:03:16;1;1;
77481;PMS5003;66582;43.004;-75.010;2023-03-30T11:05:42;2;1;
77481;PMS5003;66582;43.004;-75.010;2023-03-30T11:08:10;2;2;
77481;PMS5003;66582;43.004;-75.010;2023-03-30T11:10:34;2;1;
77481;PMS5003;66582;43.004;-75.010;2023-03-30T11:12:58;1;1;
77481;PMS5003;66582;43.004;-75.010;2023-03-30T11:15:24;1;1;
77481;PMS5003;66582;43.004;-75.010;2023-03-30T11:17:50;2;2;
77481;PMS5003;66582;43.004;-75.010;2023-03-30T11:20:17;2;2;
77481;PMS5003;66582;43.004;-75.010;2023-03-30T11:22:40;1;1;
77481;PMS5003;66582;43.004;-75.010;2023-03-30T11:25:15;2;2;
77481;PMS5003;66582;43.004;-75.010;2023-03-30T11:27:30;3;2;
77481;PMS5003;66582;43.004;-75.010;2023-03-30T11:29:56;0;0;
77481;PMS5003;66582;43.004;-75.010;2023-03-30T11:32:23;2;2;
77481;PMS5003;66582;43.004;-75.010;2023-03-30T11:34:49;1;1;
77481;PMS5003;66582;43.004;-75.010;2023-03-30T11:37:11;2;1;
77481;PMS5003;66582;43.004;-75.010;2023-03-30T11:39:35;2;2;
77481;PMS5003;66582;43.004;-75.010;2023-03-30T11:42:03;1;1;
77481;PMS5003;66582;43.004;-75.010;2023-03-30T11:44:25;3;1;
77481;PMS5003;66582;43.004;-75.010;2023-03-30T11:46:51;0;0;
77481;PMS5003;66582;43.004;-75.010;2023-03-30T11:49:21;1;1;
77481;PMS5003;66582;43.004;-75.010;2023-03-30T11:51:44;2;2;
77481;PMS5003;66582;43.004;-75.010;2023-03-30T11:54:14;3;3;
77481;PMS5003;66582;43.004;-75.010;2023-03-30T11:56:33;1;1;
77481;PMS5003;66582;43.004;-75.010;2023-03-30T11:59:00;1;0;
77481;PMS5003;66582;43.004;-75.010;2023-03-30T12:01:25;1;1;
77481;PMS5003;66582;43.004;-75.010;2023-03-30T12:03:48;2;2;
77481;PMS5003;66582;43.004;-75.010;2023-03-30T12:06:18;1;1;
77481;PMS5003;66582;43.004;-75.010;2023-03-30T12:08:42;1;1;
77481;PMS5003;66582;43.004;-75.010;2023-03-30T12:11:05;1;1;
77481;PMS5003;66582;43.004;-75.010;2023-03-30T12:13:28;3;2;
77481;PMS5003;66582;43.004;-75.010;2023-03-30T12:15:54;2;2;
77481;PMS5003;66582;43.004;-75.010;2023-03-30T12:18:23;1;1;
77481;PMS5003;66582;43.004;-75.010;2023-03-30T12:20:45;2;2;
77481;PMS5003;66582;43.004;-75.010;2023-03-30T12:23:13;1;1;
77481;PMS5003;66582;43.004;-75.010;2023-03-30T12:25:43;2;1;
77481;PMS5003;66582;43.004;-75.010;2023-03-30T12:28:08;1;1;
77481;PMS5003;66582;43.004;-75.010;2023-03-30T12:30:27;3;2;
77481;PMS5003;66582;43.004;-75.010;2023-03-30T12:32:56;2;2;
77481;PMS5003;66582;43.004;-75.010;2023-03-30T12:37:41;1;1;
77481;PMS5003;66582;43.004;-75.010;2023-03-30T12:40:06;1;1;
77481;PMS5003;66582;43.004;-75.010;2023-03-30T12:42:31;1;1;
77481;PMS5003;66582;43.004;-75.010;2023-03-30T12:45:01;1;1;
77481;PMS5003;66582;43.004;-75.010;2023-03-30T12:52:12;1;1;
77481;PMS5003;66582;43.004;-75.010;2023-03-30T12:54:46;1;1;
77481;PMS5003;66582;43.004;-75.010;2023-03-30T12:57:05;1;1;
77481;PMS5003;66582;43.004;-75.010;2023-03-30T12:59:35;1;1;
77481;PMS5003;66582;43.004;-75.010;2023-03-30T13:02:03;2;2;
77481;PMS5003;66582;43.004;-75.010;2023-03-30T13:04:17;1;1;
77481;PMS5003;66582;43.004;-75.010;2023-03-30T13:06:46;2;2;
77481;PMS5003;66582;43.004;-75.010;2023-03-30T13:13:58;3;3;
77481;PMS5003;66582;43.004;-75.010;2023-03-30T13:23:42;1;1;
77481;PMS5003;66582;43.004;-75.010;2023-03-30T13:26:05;1;1;
77481;PMS5003;66582;43.004;-75.010;2023-03-30T13:28:33;1;1;
77481;PMS5003;66582;43.004;-75.010;2023-03-30T13:30:54;2;1;
77481;PMS5003;66582;43.004;-75.010;2023-03-30T13:33:19;2;2;
77481;PMS5003;66582;43.004;-75.010;2023-03-30T13:35:47;2;2;
77481;PMS5003;66582;43.004;-75.010;2023-03-30T13:38:15;2;2;
77481;PMS5003;66582;43.004;-75.010;2023-03-30T13:40:37;2;1;
77481;PMS5003;66582;43.004;-75.010;2023-03-30T13:43:02;1;1;
77481;PMS5003;66582;43.004;-75.010;2023-03-30T13:45:31;1;1;
77481;PMS5003;66582;43.004;-75.010;2023-03-30T13:47:53;2;2;
77481;PMS5003;66582;43.004;-75.010;2023-03-30T13:50:18;2;2;
77481;PMS5003;66582;43.004;-75.010;2023-03-30T13:52:41;1;1;
77481;PMS5003;66582;43.004;-75.010;2023-03-30T13:55:09;3;2;
77481;PMS5003;66582;43.004;-75.010;2023-03-30T13:57:32;2;2;
77481;PMS5003;66582;43.004;-75.010;2023-03-30T13:59:57;3;2;
77481;PMS5003;66582;43.004;-75.010;2023-03-30T14:02:21;1;0;
77481;PMS5003;66582;43.004;-75.010;2023-03-30T14:04:47;2;2;
77481;PMS5003;66582;43.004;-75.010;2023-03-30T14:07:13;0;0;
77481;PMS5003;66582;43.004;-75.010;2023-03-30T14:09:37;2;2;
77481;PMS5003;66582;43.004;-75.010;2023-03-30T14:12:02;1;1;
77481;PMS5003;66582;43.004;-75.010;2023-03-30T14:14:32;0;0;
77481;PMS5003;66582;43.004;-75.010;2023-03-30T14:16:53;1;1;
77481;PMS5003;66582;43.004;-75.010;2023-03-30T14:19:20;2;1;
77481;PMS5003;66582;43.004;-75.010;2023-03-30T14:21:43;1;1;
77481;PMS5003;66582;43.004;-75.010;2023-03-30T14:24:08;2;2;
77481;PMS5003;66582;43.004;-75.010;2023-03-30T14:26:37;2;2;
77481;PMS5003;66582;43.004;-75.010;2023-03-30T14:28:59;2;2;
77481;PMS5003;66582;43.004;-75.010;2023-03-30T14:31:24;2;2;
77481;PMS5003;66582;43.004;-75.010;2023-03-30T14:33:49;1;1;
77481;PMS5003;66582;43.004;-75.010;2023-03-30T14:36:14;1;1;
77481;PMS5003;66582;43.004;-75.010;2023-03-30T14:38:40;1;1;
77481;PMS5003;66582;43.004;-75.010;2023-03-30T14:41:04;1;1;
77481;PMS5003;66582;43.004;-75.010;2023-03-30T14:43:30;1;1;
77481;PMS5003;66582;43.004;-75.010;2023-03-30T14:45:55;2;1;
77481;PMS5003;66582;43.004;-75.010;2023-03-30T14:48:23;2;2;
77481;PMS5003;66582;43.004;-75.010;2023-03-30T14:50:45;3;2;
77481;PMS5003;66582;43.004;-75.010;2023-03-30T14:53:10;1;1;
77481;PMS5003;66582;43.004;-75.010;2023-03-30T14:55:35;2;2;
77481;PMS5003;66582;43.004;-75.010;2023-03-30T14:58:01;1;1;
77481;PMS5003;66582;43.004;-75.010;2023-03-30T15:00:25;2;2;
77481;PMS5003;66582;43.004;-75.010;2023-03-30T15:02:51;3;2;
77481;PMS5003;66582;43.004;-75.010;2023-03-30T15:05:16;1;1;
77481;PMS5003;66582;43.004;-75.010;2023-03-30T15:07:41;1;1;
77481;PMS5003;66582;43.004;-75.010;2023-03-30T15:10:06;1;0;
77481;PMS5003;66582;43.004;-75.010;2023-03-30T15:12:32;1;1;
77481;PMS5003;66582;43.004;-75.010;2023-03-30T15:14:58;1;1;
77481;PMS5003;66582;43.004;-75.010;2023-03-30T15:17:22;1;1;
77481;PMS5003;66582;43.004;-75.010;2023-03-30T15:19:47;2;2;
77481;PMS5003;66582;43.004;-75.010;2023-03-30T15:22:13;2;2;
77481;PMS5003;66582;43.004;-75.010;2023-03-30T15:24:37;3;3;
77481;PMS5003;66582;43.004;-75.010;2023-03-30T15:27:03;1;1;
77481;PMS5003;66582;43.004;-75.010;2023-03-30T15:29:27;1;1;
77481;PMS5003;66582;43.004;-75.010;2023-03-30T15:31:59;1;1;
77481;PMS5003;66582;43.004;-75.010;2023-03-30T15:34:18;2;1;
77481;PMS5003;66582;43.004;-75.010;2023-03-30T15:36:43;2;2;
77481;PMS5003;66582;43.004;-75.010;2023-03-30T15:39:17;1;1;
77481;PMS5003;66582;43.004;-75.010;2023-03-30T15:41:43;2;2;
77481;PMS5003;66582;43.004;-75.010;2023-03-30T15:44:07;2;2;
77481;PMS5003;66582;43.004;-75.010;2023-03-30T15:46:24;2;1;
77481;PMS5003;66582;43.004;-75.010;2023-03-30T15:48:50;1;1;
77481;PMS5003;66582;43.004;-75.010;2023-03-30T15:51:15;2;2;
77481;PMS5003;66582;43.004;-75.010;2023-03-30T15:53:40;1;1;
77481;PMS5003;66582;43.004;-75.010;2023-03-30T15:56:05;3;2;
77481;PMS5003;66582;43.004;-75.010;2023-03-30T15:58:31;2;1;
77481;PMS5003;66582;43.004;-75.010;2023-03-30T16:00:55;1;1;
77481;PMS5003;66582;43.004;-75.010;2023-03-30T16:05:45;2;1;
77481;PMS5003;66582;43.004;-75.010;2023-03-30T16:08:11;2;2;
77481;PMS5003;66582;43.004;-75.010;2023-03-30T16:10:36;2;1;
77481;PMS5003;66582;43.004;-75.010;2023-03-30T16:13:01;0;0;
77481;PMS5003;66582;43.004;-75.010;2023-03-30T16:15:27;1;1;
77481;PMS5003;66582;43.004;-75.010;2023-03-30T16:17:51;2;2;
77481;PMS5003;66582;43.004;-75.010;2023-03-30T16:20:17;1;1;
77481;PMS5003;66582;43.004;-75.010;2023-03-30T16:22:41;1;1;
77481;PMS5003;66582;43.004;-75.010;2023-03-30T16:25:07;2;2;
77481;PMS5003;66582;43.004;-75.010;2023-03-30T16:27:32;1;1;
77481;PMS5003;66582;43.004;-75.010;2023-03-30T16:29:57;1;1;